NCAR-RAP Real-Time Weather Data

Output produced by METARs form (24 April 2018  22:58 UTC)
found at http://weather.rap.ucar.edu/surface/
 
RJNK 242200Z 24010KT 7000 -SHRA FEW002 BKN003 BKN005 15/14 Q1002
RJNK 242100Z 25014KT 3000 -SHRA BR FEW002 SCT003 BKN005 15/15 Q1001
RJNK 242000Z 24003KT 210V270 5000 -SHRA BR FEW002 BKN005 BKN015 17/16 Q1001
RJNK 241900Z VRB02KT 3000 SHRA BR FEW003 BKN015 OVC040 16/16 Q1001
RJNK 241800Z VRB02KT 8000 -SHRA FEW003 BKN015 BKN040 16/15 Q1001
RJNK 241700Z 13003KT 4000 -SHRA BR FEW003 BKN005 BKN015 16/15 Q1001
RJNK 241600Z 00000KT 3000 SHRA BR FEW003 SCT005 BKN015 15/15 Q1002
RJNK 241500Z 01004KT 8000 -RA FEW005 BKN040 OVC060 16/15 Q1002
RJNK 241400Z 04003KT 8000 -RA FEW030 OVC060 16/15 Q1003
RJNK 241300Z 04004KT 8000 -RA FEW005 OVC060 16/15 Q1004
RJNK 241200Z 35004KT 5000 -RA BR FEW005 OVC060 16/15 Q1004
RJNK 241100Z 03005KT 350V050 8000 -RA FEW030 SCT040 OVC060 16/15 Q1004
RJNK 241000Z 03005KT 2500 RA BR FEW020 BKN030 OVC040 16/16 Q1005
RJNK 240900Z 05005KT 3500 RA BR FEW030 SCT040 OVC060 17/16 Q1004
RJNK 240800Z VRB02KT 3000 RA BR FEW030 BKN040 OVC060 17/16 Q1006
RJNK 240700Z 36003KT 6000 -RA FEW030 BKN060 OVC080 17/16 Q1006
RJNK 240600Z 01005KT 6000 -RA FEW030 BKN060 OVC080 17/16 Q1006
RJNK 240500Z 01006KT 3500 -RA BR FEW030 BKN060 OVC080 17/16 Q1007
RJNK 240400Z 02004KT 8000 -RA FEW010 BKN060 OVC080 18/17 Q1009
RJNK 240300Z 05003KT 010V070 6000 -RA FEW010 BKN060 OVC080 18/16 Q1009
RJNK 240200Z 04003KT 360V070 8000 -RA FEW003 BKN080 17/16 Q1010
RJNK 240100Z 03004KT 340V050 8000 -RA FEW005 SCT010 OVC080 16/15 Q1011
RJNK 240000Z 31004KT 280V340 3000 -RA BR FEW010 SCT050 OVC080 16/15 Q1012
RJNK 232300Z VRB01KT 4000 -RA BR FEW030 SCT050 OVC080 16/15 Q1012
RJNK 232200Z 05003KT 9000 -RA FEW010 SCT050 OVC080 16/15 Q1012
RJNK 232100Z 09004KT 9000 -RA FEW010 SCT050 OVC080 16/15 Q1012
RJNK 232000Z 11005KT 080V170 4000 -RA BR FEW010 BKN050 OVC080 15/14 Q1013
RJNK 231900Z VRB02KT 3000 -RA BR FEW010 BKN050 OVC080 16/15 Q1014
RJNK 231800Z 08003KT 3000 RA BR FEW010 BKN050 OVC080 16/15 Q1014
RJNK 231700Z 09003KT 3500 RA BR FEW010 BKN050 OVC080 16/14 Q1015
RJNK 231600Z 12005KT 4000 -RA BR FEW008 BKN050 OVC080 16/14 Q1016
RJNK 231500Z 36003KT 280V020 6000 -RA FEW010 BKN050 OVC080 15/14 Q1016
RJNK 231400Z 23003KT 200V270 6000 -RA FEW030 BKN050 OVC080 16/14 Q1016
RJNK 231300Z VRB02KT 8000 -RA SCT030 BKN050 BKN080 16/14 Q1017
RJNK 231200Z VRB01KT 8000 FEW030 SCT050 BKN080 17/13 Q1016
RJNK 231100Z VRB01KT 8000 -RA FEW030 BKN080 16/14 Q1016
RJNK 231000Z 33004KT 290V360 8000 -RA FEW030 BKN080 16/13 Q1016
RJNK 230900Z 36005KT 8000 FEW050 BKN080 BKN130 16/12 Q1016
RJNK 230800Z 01008KT 8000 FEW130 BKN180 BKN230 17/11 Q1016
RJNK 230700Z 03007KT 8000 FEW180 BKN230 17/11 Q1016
RJNK 230600Z 01012KT 8000 FEW180 BKN230 17/12 Q1016
RJNK 230500Z 35010KT 8000 FEW180 BKN230 19/12 Q1016
RJNK 230400Z 36009KT 8000 FEW180 BKN230 21/10 Q1017
RJNK 230300Z 36010KT 8000 SCT180 BKN230 20/12 Q1017
RJNK 230200Z 36013KT 8000 FEW180 BKN230 19/11 Q1018
RJNK 230100Z 36010KT 7000 FEW180 BKN230 19/11 Q1019
RJNK 230000Z 35007KT 9000 FEW180 BKN230 17/11 Q1019
RJNK 222300Z VRB02KT 9000 FEW015 BKN230 17/10 Q1019
RJNK 222200Z 10003KT 7000 FEW010 BKN230 15/13 Q1019
RJNK 222100Z 12005KT 5000 BR SCT010 BKN015 15/13 Q1019
RJNK 222000Z 07004KT 7000 SCT008 BKN010 15/13 Q1019
RJNK 221900Z 08002KT 7000 FEW004 SCT008 BKN010 15/13 Q1018
RJNK 221800Z VRB02KT 6000 FEW004 BKN008 15/14 Q1018
RJNK 221700Z VRB01KT 7000 FEW003 SCT004 BKN008 15/14 Q1018
RJNK 221600Z VRB02KT 5000 BR SCT003 BKN004 15/14 Q1018
RJNK 221500Z 21003KT 170V270 3500 BR SCT002 BKN003 15/14 Q1019
RJNK 221400Z 30004KT 270V330 3000 BR SCT002 BKN003 15/14 Q1019
RJNK 221300Z 30005KT 250V320 9999 FEW180 BKN/// 15/13 Q1019
RJNK 221200Z VRB02KT 9999 FEW180 BKN/// 16/13 Q1019
RJNK 221100Z 19004KT 9999 FEW/// 17/13 Q1018